Time;durP1;ratioP1;P1;durP2;ratioP2;P2;SDS_P1;SDS_P2;PMS_P1;PMS_P2;Temp;Humidity;BMP_temperature;BMP_pressure;BME280_temperature;BME280_humidity;BME280_pressure;Samples;Min_cycle;Max_cycle;Signal;HPM_P1;HPM_P2
2021/12/24 00:00:06;;;;;;;;;;;5.80;99.90;;;;;;5070635;28;19938;-40
2021/12/24 00:02:33;;;;;;;;;;;5.80;99.90;;;;;;5069165;28;19974;-39
2021/12/24 00:05:00;;;;;;;;;;;5.80;99.90;;;;;;5069483;28;19934;-39
2021/12/24 00:07:28;;;;;;;;;;;5.90;99.90;;;;;;5068499;28;19960;-40
2021/12/24 00:09:55;;;;;;;;;;;5.90;99.90;;;;;;5067193;28;20372;-39
2021/12/24 00:12:24;;;;;;;;;;;5.90;99.90;;;;;;5069752;28;20015;-39
2021/12/24 00:14:55;;;;;;;;;;;5.90;99.90;;;;;;5068018;28;19966;-38
2021/12/24 00:17:28;;;;;;;;;;;5.90;99.90;;;;;;5064020;28;20401;-39
2021/12/24 00:20:10;;;;;;;;;;;5.90;99.90;;;;;;5066665;28;20296;-39
2021/12/24 00:23:14;;;;;;;;;;;6.00;99.90;;;;;;5069215;28;20296;-39
2021/12/24 00:36:36;;;;;;;;;;;6.20;99.90;;;;;;5071362;28;19924;-38
2021/12/24 00:39:04;;;;;;;;;;;6.20;99.90;;;;;;5070241;28;19925;-39
2021/12/24 00:41:31;;;;;;;;;;;6.20;99.90;;;;;;5067217;28;19978;-38
2021/12/24 00:43:59;;;;;;;;;;;6.20;99.90;;;;;;5066921;28;19939;-39
2021/12/24 00:46:25;;;;;;;;;;;6.30;99.90;;;;;;5063684;28;19932;-37
2021/12/24 00:48:53;;;;;;;;;;;6.30;99.90;;;;;;5065041;28;20031;-37
2021/12/24 00:51:29;;;;;;;;;;;6.30;99.90;;;;;;5066766;28;20295;-39
2021/12/24 00:56:41;;;;;;;;;;;6.40;99.90;;;;;;5068243;28;20487;-38
2021/12/24 00:59:08;;;;;;;;;;;6.40;99.90;;;;;;5070003;28;19924;-38
2021/12/24 01:01:34;;;;;;;;;;;6.50;99.90;;;;;;5069514;28;20288;-38
2021/12/24 01:04:01;;;;;;;;;;;6.50;99.90;;;;;;5066001;28;20008;-38
2021/12/24 01:06:28;;;;;;;;;;;6.50;99.90;;;;;;5070602;28;19925;-39
2021/12/24 01:08:55;;;;;;;;;;;6.50;99.90;;;;;;5070727;28;19971;-38
2021/12/24 01:11:22;;;;;;;;;;;6.60;99.90;;;;;;5071409;28;20600;-38
2021/12/24 01:13:50;;;;;;;;;;;6.60;99.90;;;;;;5069835;28;19925;-37
2021/12/24 01:16:19;;;;;;;;;;;6.60;99.90;;;;;;5071551;28;20295;-38
2021/12/24 01:18:54;;;;;;;;;;;6.60;99.90;;;;;;5066623;28;19925;-38
2021/12/24 01:21:34;;;;;;;;;;;6.60;99.90;;;;;;5071377;28;20023;-38
2021/12/24 01:24:04;;;;;;;;;;;6.60;99.90;;;;;;5071453;28;19925;-38
2021/12/24 01:26:40;;;;;;;;;;;6.70;99.90;;;;;;5074319;28;19931;-39
2021/12/24 01:40:08;;;;;;;;;;;6.70;99.90;;;;;;5073788;28;19925;-38
2021/12/24 01:42:41;;;;;;;;;;;6.70;99.90;;;;;;5073894;28;19924;-37
2021/12/24 01:45:17;;;;;;;;;;;6.80;99.90;;;;;;5073115;28;20011;-38
2021/12/24 01:47:44;;;;;;;;;;;6.80;99.90;;;;;;5072810;28;20392;-38
2021/12/24 01:50:11;;;;;;;;;;;6.80;99.90;;;;;;5075004;28;19925;-38
2021/12/24 01:52:38;;;;;;;;;;;6.80;99.90;;;;;;5073719;28;19928;-38
2021/12/24 01:55:05;;;;;;;;;;;6.90;99.90;;;;;;5074585;28;19931;-39
2021/12/24 01:57:32;;;;;;;;;;;6.90;99.90;;;;;;5074884;28;19931;-40
2021/12/24 01:59:59;;;;;;;;;;;6.90;99.90;;;;;;5072911;28;20017;-38
2021/12/24 02:02:28;;;;;;;;;;;6.90;99.90;;;;;;5074249;28;19931;-39
2021/12/24 02:04:54;;;;;;;;;;;6.90;99.90;;;;;;5073624;28;19982;-40
2021/12/24 02:07:21;;;;;;;;;;;6.90;99.90;;;;;;5073355;28;19975;-39
2021/12/24 02:09:48;;;;;;;;;;;6.90;99.90;;;;;;5073742;28;20016;-39
2021/12/24 02:12:16;;;;;;;;;;;7.00;99.90;;;;;;5073378;28;19924;-39
2021/12/24 02:14:48;;;;;;;;;;;7.00;99.90;;;;;;5073426;28;20099;-39
2021/12/24 02:30:58;;;;;;;;;;;7.20;99.90;;;;;;5058605;28;20380;-39
2021/12/24 02:33:25;;;;;;;;;;;7.20;99.90;;;;;;5073289;28;19925;-38
2021/12/24 02:35:53;;;;;;;;;;;7.20;99.90;;;;;;5074149;28;19966;-39
2021/12/24 02:38:20;;;;;;;;;;;7.20;99.90;;;;;;5073144;28;19925;-39
2021/12/24 02:40:47;;;;;;;;;;;7.20;99.90;;;;;;5073592;28;20037;-39
2021/12/24 02:43:17;;;;;;;;;;;7.30;99.90;;;;;;5071254;28;19931;-39
2021/12/24 02:45:46;;;;;;;;;;;7.30;99.90;;;;;;5072212;28;20320;-41
2021/12/24 02:53:57;;;;;;;;;;;7.40;99.90;;;;;;5070992;28;19929;-38
2021/12/24 02:56:25;;;;;;;;;;;7.40;99.90;;;;;;5070339;28;20011;-40
2021/12/24 02:58:52;;;;;;;;;;;7.40;99.90;;;;;;5072291;28;19931;-40
2021/12/24 03:01:20;;;;;;;;;;;7.50;99.90;;;;;;5070808;28;19967;-41
2021/12/24 03:03:48;;;;;;;;;;;7.50;99.90;;;;;;5071475;28;20396;-39
2021/12/24 03:06:16;;;;;;;;;;;7.50;99.90;;;;;;5072327;28;19936;-41
2021/12/24 03:08:43;;;;;;;;;;;7.50;99.90;;;;;;5072190;28;19925;-40
2021/12/24 03:11:10;;;;;;;;;;;7.60;99.90;;;;;;5071948;28;19975;-40
2021/12/24 03:13:37;;;;;;;;;;;7.60;99.90;;;;;;5071260;28;20299;-39
2021/12/24 03:16:04;;;;;;;;;;;7.60;99.90;;;;;;5071619;28;19929;-40
2021/12/24 03:18:33;;;;;;;;;;;7.70;99.90;;;;;;5069717;28;19979;-40
2021/12/24 03:21:06;;;;;;;;;;;7.80;99.90;;;;;;5069733;28;19925;-43
2021/12/24 03:23:37;;;;;;;;;;;7.90;99.90;;;;;;5068740;28;19925;-40
2021/12/24 03:26:04;;;;;;;;;;;7.90;99.90;;;;;;5071029;28;19932;-40
2021/12/24 03:28:31;;;;;;;;;;;8.00;99.90;;;;;;5072038;28;19924;-42
2021/12/24 03:30:59;;;;;;;;;;;8.00;99.90;;;;;;5068833;28;19939;-40
2021/12/24 03:33:25;;;;;;;;;;;8.00;99.90;;;;;;5071522;28;19932;-40
2021/12/24 03:35:52;;;;;;;;;;;8.00;99.90;;;;;;5072180;28;19932;-41
2021/12/24 03:38:19;;;;;;;;;;;8.10;99.90;;;;;;5071962;28;19977;-40
2021/12/24 03:40:47;;;;;;;;;;;8.10;99.90;;;;;;5071209;28;19939;-43
2021/12/24 03:43:14;;;;;;;;;;;8.20;99.90;;;;;;5072345;28;19928;-41
2021/12/24 03:45:47;;;;;;;;;;;8.20;99.90;;;;;;5072570;28;20363;-41
2021/12/24 03:48:19;;;;;;;;;;;8.20;99.90;;;;;;5071151;28;20304;-41
2021/12/24 03:50:54;;;;;;;;;;;8.30;99.90;;;;;;5070422;28;19932;-41
2021/12/24 03:56:06;;;;;;;;;;;8.30;99.90;;;;;;5071712;28;19925;-41
2021/12/24 03:58:33;;;;;;;;;;;8.30;99.90;;;;;;5070737;28;19974;-41
2021/12/24 04:01:00;;;;;;;;;;;8.30;99.90;;;;;;5068601;28;19983;-41
2021/12/24 04:03:27;;;;;;;;;;;8.40;99.90;;;;;;5069587;28;20004;-44
2021/12/24 04:05:53;;;;;;;;;;;8.40;99.90;;;;;;5071408;28;19939;-41
2021/12/24 04:08:20;;;;;;;;;;;8.40;99.90;;;;;;5067991;28;20023;-41
2021/12/24 04:10:47;;;;;;;;;;;8.40;99.90;;;;;;5070732;28;19925;-40
2021/12/24 04:13:15;;;;;;;;;;;8.40;99.90;;;;;;5068263;28;20447;-41
2021/12/24 04:15:42;;;;;;;;;;;8.40;99.90;;;;;;5071720;28;19978;-40
2021/12/24 04:18:15;;;;;;;;;;;8.40;99.90;;;;;;5072126;28;20024;-40
2021/12/24 04:26:10;;;;;;;;;;;8.50;99.90;;;;;;5070711;28;19924;-41
2021/12/24 04:28:38;;;;;;;;;;;8.50;99.90;;;;;;5071774;28;19978;-41
2021/12/24 04:31:05;;;;;;;;;;;8.50;99.90;;;;;;5070044;28;19925;-41
2021/12/24 04:33:36;;;;;;;;;;;8.50;99.90;;;;;;5071315;28;19982;-40
2021/12/24 04:36:16;;;;;;;;;;;8.60;99.90;;;;;;5066252;28;20448;-42
2021/12/24 04:39:05;;;;;;;;;;;8.60;99.90;;;;;;5070954;28;19924;-41
2021/12/24 05:03:31;;;;;;;;;;;8.60;99.90;;;;;;5073400;28;20014;-40
2021/12/24 05:06:09;;;;;;;;;;;8.60;99.90;;;;;;5075391;28;20256;-41
2021/12/24 05:08:42;;;;;;;;;;;8.60;99.90;;;;;;5073827;28;20295;-41
2021/12/24 05:11:12;;;;;;;;;;;8.60;99.90;;;;;;5070670;28;19925;-40
2021/12/24 05:13:39;;;;;;;;;;;8.60;99.90;;;;;;5072095;28;19932;-40
2021/12/24 05:16:17;;;;;;;;;;;8.50;99.90;;;;;;5071486;28;20345;-40
2021/12/24 05:19:04;;;;;;;;;;;8.60;99.90;;;;;;5073411;28;20418;-41
2021/12/24 05:21:33;;;;;;;;;;;8.50;99.90;;;;;;5071925;28;20381;-40
2021/12/24 05:23:59;;;;;;;;;;;8.50;99.90;;;;;;5072751;28;19932;-41
2021/12/24 05:26:26;;;;;;;;;;;8.60;99.90;;;;;;5073011;28;19925;-41
2021/12/24 05:28:53;;;;;;;;;;;8.50;99.90;;;;;;5074301;28;19951;-41
2021/12/24 05:31:21;;;;;;;;;;;8.60;99.90;;;;;;5071325;28;20000;-40
2021/12/24 05:33:48;;;;;;;;;;;8.50;99.90;;;;;;5074085;28;19931;-40
2021/12/24 05:36:15;;;;;;;;;;;8.50;99.90;;;;;;5069848;28;20989;-41
2021/12/24 05:38:42;;;;;;;;;;;8.60;99.90;;;;;;5074705;28;19924;-40
2021/12/24 05:41:08;;;;;;;;;;;8.60;99.90;;;;;;5072385;28;20384;-40
2021/12/24 05:43:35;;;;;;;;;;;8.50;99.90;;;;;;5073756;28;19925;-40
2021/12/24 05:46:02;;;;;;;;;;;8.50;99.90;;;;;;5072849;28;20025;-41
2021/12/24 05:48:30;;;;;;;;;;;8.50;99.90;;;;;;5073065;28;19939;-41
2021/12/24 05:50:57;;;;;;;;;;;8.60;99.90;;;;;;5072767;28;19924;-41
2021/12/24 05:53:24;;;;;;;;;;;8.50;99.90;;;;;;5088084;28;19967;-41
2021/12/24 05:55:51;;;;;;;;;;;8.60;99.90;;;;;;5071284;28;20442;-41
2021/12/24 05:58:18;;;;;;;;;;;8.60;99.90;;;;;;5073073;28;20394;-41
2021/12/24 06:00:44;;;;;;;;;;;8.60;99.90;;;;;;5072118;28;19939;-40
2021/12/24 06:03:11;;;;;;;;;;;8.60;99.90;;;;;;5072656;28;19928;-40
2021/12/24 06:05:39;;;;;;;;;;;8.60;99.90;;;;;;5072723;28;20011;-41
2021/12/24 06:08:06;;;;;;;;;;;8.60;99.90;;;;;;5071915;28;20019;-41
2021/12/24 06:10:33;;;;;;;;;;;8.60;99.90;;;;;;5098083;27;19924;-41
2021/12/24 06:13:00;;;;;;;;;;;8.60;99.90;;;;;;5061405;28;19925;-40
2021/12/24 06:15:27;;;;;;;;;;;8.60;99.90;;;;;;5068541;28;19978;-41
2021/12/24 06:17:55;;;;;;;;;;;8.50;99.90;;;;;;5070380;28;19932;-41
2021/12/24 06:20:22;;;;;;;;;;;8.50;99.90;;;;;;5069694;28;20373;-41
2021/12/24 06:22:51;;;;;;;;;;;8.60;99.90;;;;;;5072029;28;19928;-41
2021/12/24 06:25:18;;;;;;;;;;;8.60;99.90;;;;;;5071561;28;20345;-42
2021/12/24 06:27:45;;;;;;;;;;;8.50;99.90;;;;;;5068470;28;19932;-41
2021/12/24 06:30:12;;;;;;;;;;;8.50;99.90;;;;;;5072101;28;19954;-41
2021/12/24 06:32:39;;;;;;;;;;;8.50;99.90;;;;;;5069925;28;20273;-41
2021/12/24 06:35:06;;;;;;;;;;;8.50;99.90;;;;;;5072490;28;20003;-40
2021/12/24 06:37:32;;;;;;;;;;;8.50;99.90;;;;;;5071906;28;19974;-41
2021/12/24 06:40:00;;;;;;;;;;;8.50;99.90;;;;;;5072506;28;19938;-40
2021/12/24 06:42:27;;;;;;;;;;;8.50;99.90;;;;;;5072368;28;19924;-42
2021/12/24 06:44:54;;;;;;;;;;;8.50;99.90;;;;;;5071261;28;19928;-42
2021/12/24 06:47:21;;;;;;;;;;;8.50;99.90;;;;;;5070805;28;19990;-41
2021/12/24 06:49:48;;;;;;;;;;;8.50;99.90;;;;;;5072641;28;19924;-41
2021/12/24 06:52:14;;;;;;;;;;;8.50;99.90;;;;;;5072734;28;19967;-41
2021/12/24 06:54:41;;;;;;;;;;;8.50;99.90;;;;;;5072660;28;19931;-41
2021/12/24 06:57:15;;;;;;;;;;;8.50;99.90;;;;;;5070952;28;20382;-41
2021/12/24 06:59:41;;;;;;;;;;;8.50;99.90;;;;;;5069294;28;19925;-41
2021/12/24 07:02:08;;;;;;;;;;;8.50;99.90;;;;;;5072374;28;20467;-41
2021/12/24 07:04:35;;;;;;;;;;;8.50;99.90;;;;;;5071781;28;20015;-42
2021/12/24 07:07:02;;;;;;;;;;;8.50;99.90;;;;;;5071398;28;19924;-41
2021/12/24 07:09:28;;;;;;;;;;;8.40;99.90;;;;;;5070522;28;20017;-40
2021/12/24 07:11:55;;;;;;;;;;;8.50;99.90;;;;;;5072140;28;19931;-40
2021/12/24 07:14:24;;;;;;;;;;;8.50;99.90;;;;;;5071391;28;19943;-41
2021/12/24 07:16:52;;;;;;;;;;;8.50;99.90;;;;;;5070394;28;20204;-41
2021/12/24 07:19:19;;;;;;;;;;;8.50;99.90;;;;;;5072319;28;19968;-40
2021/12/24 07:21:46;;;;;;;;;;;8.50;99.90;;;;;;5071070;28;19971;-40
2021/12/24 07:24:13;;;;;;;;;;;8.50;99.90;;;;;;5071679;28;20017;-42
2021/12/24 07:26:39;;;;;;;;;;;8.50;99.90;;;;;;5067321;28;20287;-40
2021/12/24 07:29:06;;;;;;;;;;;8.50;99.90;;;;;;5070418;28;19924;-40
2021/12/24 07:31:34;;;;;;;;;;;8.40;99.90;;;;;;5071136;28;20029;-40
2021/12/24 07:34:01;;;;;;;;;;;8.40;99.90;;;;;;5071500;28;19979;-41
2021/12/24 07:36:28;;;;;;;;;;;8.50;99.90;;;;;;5071775;28;19963;-41
2021/12/24 07:38:55;;;;;;;;;;;8.40;99.90;;;;;;5070631;28;20341;-42
2021/12/24 07:41:21;;;;;;;;;;;8.40;99.90;;;;;;5065168;28;20033;-41
2021/12/24 07:43:48;;;;;;;;;;;8.40;99.90;;;;;;5071862;28;19931;-41
2021/12/24 07:46:15;;;;;;;;;;;8.40;99.90;;;;;;5071119;28;19964;-41
2021/12/24 07:48:48;;;;;;;;;;;8.40;99.90;;;;;;5070251;28;20400;-40
2021/12/24 07:54:00;;;;;;;;;;;8.40;99.90;;;;;;5070038;28;19924;-41
2021/12/24 07:56:27;;;;;;;;;;;8.40;99.90;;;;;;5064803;28;19925;-41
2021/12/24 07:58:54;;;;;;;;;;;8.40;99.90;;;;;;5065964;28;20012;-41
2021/12/24 08:01:22;;;;;;;;;;;8.40;99.90;;;;;;5067922;28;19939;-41
2021/12/24 08:03:50;;;;;;;;;;;8.40;99.90;;;;;;5069185;28;19970;-43
2021/12/24 08:06:17;;;;;;;;;;;8.40;99.90;;;;;;5069021;28;19969;-40
2021/12/24 08:08:44;;;;;;;;;;;8.40;99.90;;;;;;5069609;28;20324;-40
2021/12/24 08:11:11;;;;;;;;;;;8.30;99.90;;;;;;5068222;28;20478;-40
2021/12/24 08:13:38;;;;;;;;;;;8.40;99.90;;;;;;5069384;28;19924;-40
2021/12/24 08:16:05;;;;;;;;;;;8.40;99.90;;;;;;5068632;28;20028;-40
2021/12/24 08:18:31;;;;;;;;;;;8.30;99.90;;;;;;5070945;28;20335;-42
2021/12/24 08:20:59;;;;;;;;;;;8.40;99.90;;;;;;5070502;28;19925;-41
2021/12/24 08:23:26;;;;;;;;;;;8.30;99.90;;;;;;5067080;28;19975;-41
2021/12/24 08:25:58;;;;;;;;;;;8.40;99.90;;;;;;5065598;28;19931;-41
2021/12/24 08:28:25;;;;;;;;;;;8.40;99.90;;;;;;5069355;28;19962;-40
2021/12/24 08:30:52;;;;;;;;;;;8.40;99.90;;;;;;5078182;28;19978;-41
2021/12/24 08:33:18;;;;;;;;;;;8.40;99.90;;;;;;5070390;28;19970;-40
2021/12/24 08:35:45;;;;;;;;;;;8.40;99.90;;;;;;5075952;28;19925;-41
2021/12/24 08:38:13;;;;;;;;;;;8.50;99.90;;;;;;5075254;28;20006;-40
2021/12/24 08:40:40;;;;;;;;;;;8.40;99.90;;;;;;5070686;28;19930;-41
2021/12/24 08:43:07;;;;;;;;;;;8.50;99.90;;;;;;5072157;28;20027;-41
2021/12/24 08:45:34;;;;;;;;;;;8.50;99.90;;;;;;5066820;28;19967;-41
2021/12/24 08:48:00;;;;;;;;;;;8.50;99.90;;;;;;5069141;28;19931;-40
2021/12/24 08:50:27;;;;;;;;;;;8.50;99.90;;;;;;5072723;28;19925;-41
2021/12/24 08:52:54;;;;;;;;;;;8.50;99.90;;;;;;5070118;28;20464;-41
2021/12/24 08:55:22;;;;;;;;;;;8.50;99.90;;;;;;5071855;28;20379;-41
2021/12/24 08:57:49;;;;;;;;;;;8.50;99.90;;;;;;5071155;28;20401;-41
2021/12/24 09:00:16;;;;;;;;;;;8.50;99.90;;;;;;5076759;28;19967;-41
2021/12/24 09:02:43;;;;;;;;;;;8.50;99.90;;;;;;5072309;28;20367;-41
2021/12/24 09:05:10;;;;;;;;;;;8.60;99.90;;;;;;5069824;28;19933;-40
2021/12/24 09:07:37;;;;;;;;;;;8.50;99.90;;;;;;5068982;28;19929;-41
2021/12/24 09:10:04;;;;;;;;;;;8.50;99.90;;;;;;5077858;28;19976;-41
2021/12/24 09:12:32;;;;;;;;;;;8.60;99.90;;;;;;5071598;28;20384;-41
2021/12/24 09:14:59;;;;;;;;;;;8.50;99.90;;;;;;5071523;28;20347;-40
2021/12/24 09:17:27;;;;;;;;;;;8.60;99.90;;;;;;5073581;28;19938;-41
2021/12/24 09:19:55;;;;;;;;;;;8.50;99.90;;;;;;5068445;28;19940;-40
2021/12/24 09:22:29;;;;;;;;;;;8.50;99.90;;;;;;5072004;28;19938;-41
2021/12/24 09:24:56;;;;;;;;;;;8.50;99.90;;;;;;5068719;28;20710;-41
2021/12/24 09:27:23;;;;;;;;;;;8.50;99.90;;;;;;5074212;28;19932;-42
2021/12/24 09:29:51;;;;;;;;;;;8.50;99.90;;;;;;5073890;28;19924;-42
2021/12/24 09:32:18;;;;;;;;;;;8.50;99.90;;;;;;5074643;28;19924;-42
2021/12/24 09:34:44;;;;;;;;;;;8.50;99.90;;;;;;5107987;27;19986;-41
2021/12/24 09:37:11;;;;;;;;;;;8.60;99.90;;;;;;5074106;28;19972;-42
2021/12/24 09:39:38;;;;;;;;;;;8.60;99.90;;;;;;5080718;28;20396;-40
2021/12/24 09:42:05;;;;;;;;;;;8.60;99.90;;;;;;5069786;28;20019;-41
2021/12/24 09:44:32;;;;;;;;;;;8.60;99.90;;;;;;5068837;28;19924;-42
2021/12/24 09:47:00;;;;;;;;;;;8.60;99.90;;;;;;5070803;28;20008;-41
2021/12/24 09:49:27;;;;;;;;;;;8.60;99.90;;;;;;5073331;28;19938;-41
2021/12/24 09:51:53;;;;;;;;;;;8.60;99.90;;;;;;5107193;28;20348;-41
2021/12/24 09:54:21;;;;;;;;;;;8.60;99.90;;;;;;5075099;28;19968;-41
2021/12/24 09:56:48;;;;;;;;;;;8.60;99.90;;;;;;5069572;28;20383;-43
2021/12/24 09:59:15;;;;;;;;;;;8.60;99.90;;;;;;5070266;28;19929;-41
2021/12/24 10:01:43;;;;;;;;;;;8.60;99.90;;;;;;5072004;28;19978;-41
2021/12/24 10:04:12;;;;;;;;;;;8.70;99.90;;;;;;5072723;28;19932;-42
2021/12/24 10:06:39;;;;;;;;;;;8.70;99.90;;;;;;5072881;28;19924;-41
2021/12/24 10:09:07;;;;;;;;;;;8.70;99.90;;;;;;5074616;28;19932;-43
2021/12/24 10:11:47;;;;;;;;;;;8.70;99.90;;;;;;5067840;28;20289;-44
2021/12/24 10:14:14;;;;;;;;;;;8.80;99.90;;;;;;5068460;28;19925;-42
2021/12/24 10:16:41;;;;;;;;;;;8.70;99.90;;;;;;5067252;28;20376;-41
2021/12/24 10:19:08;;;;;;;;;;;8.80;99.90;;;;;;5065961;28;20369;-42
2021/12/24 10:21:37;;;;;;;;;;;8.70;99.90;;;;;;5068272;28;19928;-41
2021/12/24 10:24:04;;;;;;;;;;;8.70;99.90;;;;;;5071888;28;20315;-40
2021/12/24 10:26:31;;;;;;;;;;;8.70;99.90;;;;;;5071698;28;19933;-39
2021/12/24 10:29:02;;;;;;;;;;;8.70;99.90;;;;;;5075061;28;19932;-41
2021/12/24 10:31:30;;;;;;;;;;;8.70;99.90;;;;;;5077142;28;21723;-40
2021/12/24 10:34:27;;;;;;;;;;;8.70;99.90;;;;;;5071431;28;19924;-44
2021/12/24 10:37:09;;;;;;;;;;;8.70;99.90;;;;;;5074347;28;19924;-40
2021/12/24 10:39:39;;;;;;;;;;;8.70;99.90;;;;;;5081672;28;20044;-41
2021/12/24 10:42:07;;;;;;;;;;;8.70;99.90;;;;;;5070979;28;20429;-39
2021/12/24 10:44:34;;;;;;;;;;;8.70;99.90;;;;;;5070458;28;19925;-42
2021/12/24 10:47:09;;;;;;;;;;;8.60;99.90;;;;;;5066223;28;19932;-39
2021/12/24 10:52:47;;;;;;;;;;;8.70;99.90;;;;;;5099290;27;20279;-40
2021/12/24 10:55:15;;;;;;;;;;;8.60;99.90;;;;;;5080357;28;19928;-40
2021/12/24 10:57:42;;;;;;;;;;;8.60;99.90;;;;;;5070002;28;19929;-39
2021/12/24 11:00:14;;;;;;;;;;;8.70;99.90;;;;;;5067630;28;19931;-40
2021/12/24 11:02:42;;;;;;;;;;;8.60;99.90;;;;;;5068693;28;20024;-41
2021/12/24 11:05:14;;;;;;;;;;;8.60;99.90;;;;;;5066283;28;19925;-40
2021/12/24 11:07:43;;;;;;;;;;;8.60;99.90;;;;;;5066597;28;19932;-41
2021/12/24 11:10:12;;;;;;;;;;;8.60;99.90;;;;;;5068976;28;19924;-40
2021/12/24 11:12:39;;;;;;;;;;;8.60;99.90;;;;;;5069370;28;19925;-40
2021/12/24 11:15:17;;;;;;;;;;;8.60;99.90;;;;;;5066324;28;19932;-40
2021/12/24 11:17:44;;;;;;;;;;;8.60;99.90;;;;;;5061988;28;19972;-43
2021/12/24 11:20:11;;;;;;;;;;;8.60;99.90;;;;;;5067065;28;19932;-40
2021/12/24 11:22:50;;;;;;;;;;;8.60;99.90;;;;;;5098221;28;19925;-41
2021/12/24 11:25:16;;;;;;;;;;;8.50;99.90;;;;;;5084148;28;19939;-40
2021/12/24 11:27:43;;;;;;;;;;;8.60;99.90;;;;;;5065524;28;19925;-40
2021/12/24 11:30:14;;;;;;;;;;;8.50;99.90;;;;;;5067924;28;19925;-42
2021/12/24 11:32:41;;;;;;;;;;;8.40;99.90;;;;;;5097276;28;19933;-40
2021/12/24 11:35:08;;;;;;;;;;;8.30;99.90;;;;;;5068089;28;19925;-40
2021/12/24 11:37:35;;;;;;;;;;;8.10;99.90;;;;;;5064727;28;19964;-41
2021/12/24 11:40:04;;;;;;;;;;;8.00;99.90;;;;;;5069014;28;20008;-41
2021/12/24 11:42:32;;;;;;;;;;;7.80;99.90;;;;;;5066918;28;19982;-40
2021/12/24 11:45:00;;;;;;;;;;;7.60;99.90;;;;;;5066123;28;19924;-41
2021/12/24 11:47:26;;;;;;;;;;;7.50;99.90;;;;;;5064992;28;20008;-40
2021/12/24 11:49:53;;;;;;;;;;;7.30;99.90;;;;;;5066689;28;19947;-40
2021/12/24 11:52:20;;;;;;;;;;;7.30;99.90;;;;;;5086744;28;19938;-41
2021/12/24 11:54:47;;;;;;;;;;;7.20;99.90;;;;;;5082778;28;20011;-41
2021/12/24 11:57:17;;;;;;;;;;;7.20;99.90;;;;;;5077182;28;20384;-40
2021/12/24 11:59:44;;;;;;;;;;;7.10;99.90;;;;;;5086412;28;19970;-40
2021/12/24 12:02:11;;;;;;;;;;;7.10;99.90;;;;;;5081922;28;19924;-40
2021/12/24 12:04:38;;;;;;;;;;;7.10;99.90;;;;;;5073940;28;19925;-40
2021/12/24 12:07:11;;;;;;;;;;;7.10;99.90;;;;;;5073420;28;19931;-41
2021/12/24 12:09:40;;;;;;;;;;;7.00;99.90;;;;;;5094419;28;19967;-40
2021/12/24 12:12:09;;;;;;;;;;;7.00;99.90;;;;;;5057211;28;20318;-40
2021/12/24 12:14:38;;;;;;;;;;;7.00;99.90;;;;;;5070166;28;19924;-40
2021/12/24 12:17:06;;;;;;;;;;;6.90;99.90;;;;;;5073928;28;19935;-41
2021/12/24 12:19:43;;;;;;;;;;;6.90;99.90;;;;;;5072951;28;19978;-40
2021/12/24 12:22:16;;;;;;;;;;;6.90;99.90;;;;;;5073260;28;20023;-40
2021/12/24 12:27:27;;;;;;;;;;;6.90;99.90;;;;;;5074540;28;19955;-40
2021/12/24 12:29:56;;;;;;;;;;;6.90;99.90;;;;;;5073178;28;20006;-42
2021/12/24 12:32:26;;;;;;;;;;;6.90;99.90;;;;;;5073397;28;19931;-40
2021/12/24 12:34:54;;;;;;;;;;;7.00;99.90;;;;;;5055997;28;19986;-43
2021/12/24 12:37:21;;;;;;;;;;;7.00;99.90;;;;;;5067378;28;19931;-42
2021/12/24 12:39:49;;;;;;;;;;;6.90;99.90;;;;;;5089530;28;20034;-41
2021/12/24 12:42:17;;;;;;;;;;;6.90;99.90;;;;;;5074626;28;20013;-41
2021/12/24 12:44:45;;;;;;;;;;;6.90;99.90;;;;;;5056729;28;19947;-40
2021/12/24 12:47:14;;;;;;;;;;;6.90;99.90;;;;;;5055036;28;19935;-40
2021/12/24 12:49:41;;;;;;;;;;;6.80;99.90;;;;;;5085429;28;19970;-40
2021/12/24 12:52:12;;;;;;;;;;;6.80;99.90;;;;;;5052708;28;20009;-41
2021/12/24 12:54:40;;;;;;;;;;;6.80;99.90;;;;;;5075390;28;19932;-41
2021/12/24 12:57:21;;;;;;;;;;;6.70;99.90;;;;;;5067504;28;19933;-41
2021/12/24 13:00:06;;;;;;;;;;;6.70;99.90;;;;;;5068762;28;19928;-40
2021/12/24 13:02:52;;;;;;;;;;;6.70;99.90;;;;;;5072017;28;19978;-40
2021/12/24 13:05:20;;;;;;;;;;;6.70;99.90;;;;;;5050319;28;19925;-41
2021/12/24 13:07:47;;;;;;;;;;;6.80;99.90;;;;;;5055581;28;19925;-40
2021/12/24 13:10:16;;;;;;;;;;;6.70;99.90;;;;;;5069091;28;20316;-42
2021/12/24 13:12:43;;;;;;;;;;;6.70;99.90;;;;;;5055230;28;19925;-41
2021/12/24 13:15:16;;;;;;;;;;;6.70;99.90;;;;;;5066086;28;20027;-41
2021/12/24 13:17:44;;;;;;;;;;;6.70;99.90;;;;;;5051844;28;19932;-40
2021/12/24 13:20:17;;;;;;;;;;;6.70;99.90;;;;;;5070669;28;20672;-40
2021/12/24 13:22:44;;;;;;;;;;;6.70;99.90;;;;;;5066531;28;19931;-41
2021/12/24 13:25:14;;;;;;;;;;;6.70;99.90;;;;;;5071245;28;19994;-40
2021/12/24 13:27:41;;;;;;;;;;;6.70;99.90;;;;;;5066912;28;19928;-41
2021/12/24 13:30:09;;;;;;;;;;;6.70;99.90;;;;;;5048576;28;21161;-41
2021/12/24 13:32:40;;;;;;;;;;;6.60;99.90;;;;;;5071912;28;20346;-41
2021/12/24 13:35:07;;;;;;;;;;;6.70;99.90;;;;;;5071629;28;19960;-40
2021/12/24 13:37:34;;;;;;;;;;;6.70;99.90;;;;;;5052066;28;20281;-39
2021/12/24 13:40:02;;;;;;;;;;;6.70;99.90;;;;;;5067444;28;19950;-40
2021/12/24 13:42:29;;;;;;;;;;;6.80;99.90;;;;;;5068020;28;19932;-40
2021/12/24 13:44:59;;;;;;;;;;;6.80;99.90;;;;;;5067720;28;20287;-40
2021/12/24 13:47:33;;;;;;;;;;;6.80;99.90;;;;;;5066232;28;19925;-40
2021/12/24 13:50:10;;;;;;;;;;;6.80;99.90;;;;;;5070246;28;19932;-41
2021/12/24 13:55:23;;;;;;;;;;;6.90;99.90;;;;;;5065846;28;20031;-42
2021/12/24 13:57:53;;;;;;;;;;;6.80;99.90;;;;;;5068145;28;19931;-40
2021/12/24 14:00:21;;;;;;;;;;;6.80;99.90;;;;;;5046995;28;19978;-40
2021/12/24 14:02:52;;;;;;;;;;;6.80;99.90;;;;;;5062972;28;20312;-40
2021/12/24 14:05:20;;;;;;;;;;;6.80;99.90;;;;;;5067991;28;19924;-40
2021/12/24 14:07:48;;;;;;;;;;;6.90;99.90;;;;;;5067966;28;19939;-40
2021/12/24 14:10:24;;;;;;;;;;;6.90;99.90;;;;;;5052908;28;19931;-40
2021/12/24 14:12:51;;;;;;;;;;;6.90;99.90;;;;;;5068583;28;19947;-41
2021/12/24 14:15:23;;;;;;;;;;;6.90;99.90;;;;;;5048027;28;20333;-40
2021/12/24 14:18:08;;;;;;;;;;;6.90;99.90;;;;;;5049004;28;19947;-41
2021/12/24 14:21:44;;;;;;;;;;;6.90;99.90;;;;;;5049037;28;19931;-42
2021/12/24 14:23:29;;;;;;;;;;;6.90;99.90;;;;;;5053018;28;19935;-39
2021/12/24 14:25:57;;;;;;;;;;;7.00;99.90;;;;;;5069586;28;19993;-41
2021/12/24 14:28:24;;;;;;;;;;;7.00;99.90;;;;;;5065727;28;20019;-41
2021/12/24 14:30:58;;;;;;;;;;;7.00;99.90;;;;;;5048887;28;19994;-42
2021/12/24 14:33:24;;;;;;;;;;;7.00;99.90;;;;;;5045794;28;20443;-40
2021/12/24 14:35:52;;;;;;;;;;;7.00;99.90;;;;;;5062315;28;20462;-42
2021/12/24 14:38:19;;;;;;;;;;;7.00;99.90;;;;;;5050077;28;20394;-40
2021/12/24 14:40:50;;;;;;;;;;;7.00;99.90;;;;;;5065851;28;19924;-40
2021/12/24 14:43:18;;;;;;;;;;;7.00;99.90;;;;;;5050919;28;19948;-42
2021/12/24 14:45:45;;;;;;;;;;;7.00;99.90;;;;;;5073638;28;19993;-40
2021/12/24 14:48:13;;;;;;;;;;;7.00;99.90;;;;;;5077388;28;19924;-41
2021/12/24 14:50:45;;;;;;;;;;;7.00;99.90;;;;;;5057540;28;19996;-41
2021/12/24 14:53:13;;;;;;;;;;;7.00;99.90;;;;;;5057122;28;19929;-40
2021/12/24 14:55:41;;;;;;;;;;;7.00;99.90;;;;;;5061206;28;20003;-40
2021/12/24 14:58:07;;;;;;;;;;;6.90;99.90;;;;;;5055863;28;19978;-39
2021/12/24 15:00:37;;;;;;;;;;;7.00;99.90;;;;;;5050633;28;19929;-41
2021/12/24 15:03:05;;;;;;;;;;;7.00;99.90;;;;;;5060049;28;19931;-41
2021/12/24 15:05:33;;;;;;;;;;;7.00;99.90;;;;;;5061665;28;19936;-41
2021/12/24 15:08:00;;;;;;;;;;;6.90;99.90;;;;;;5044995;28;19937;-41
2021/12/24 15:10:27;;;;;;;;;;;6.90;99.90;;;;;;5060381;28;20340;-41
2021/12/24 15:13:01;;;;;;;;;;;6.90;99.90;;;;;;5079818;28;19925;-40
2021/12/24 15:15:28;;;;;;;;;;;6.90;99.90;;;;;;5049312;28;20431;-40
2021/12/24 15:17:56;;;;;;;;;;;6.80;99.90;;;;;;5064422;28;20010;-39
2021/12/24 15:20:27;;;;;;;;;;;6.80;99.90;;;;;;5064110;28;19979;-41
2021/12/24 15:22:53;;;;;;;;;;;6.80;99.90;;;;;;5045213;28;19955;-40
2021/12/24 15:25:20;;;;;;;;;;;6.80;99.90;;;;;;5042687;28;20343;-40
2021/12/24 15:27:47;;;;;;;;;;;6.80;99.90;;;;;;5042530;28;19932;-41
2021/12/24 15:30:14;;;;;;;;;;;6.70;99.90;;;;;;5048192;28;20041;-40
2021/12/24 15:32:41;;;;;;;;;;;6.70;99.90;;;;;;5045536;28;20402;-41
2021/12/24 15:35:10;;;;;;;;;;;6.70;99.90;;;;;;5043877;28;20013;-40
2021/12/24 15:37:36;;;;;;;;;;;6.70;99.90;;;;;;5047686;28;19979;-41
2021/12/24 15:40:04;;;;;;;;;;;6.70;99.90;;;;;;5050735;28;19932;-40
2021/12/24 15:42:31;;;;;;;;;;;6.60;99.90;;;;;;5051168;28;19939;-40
2021/12/24 15:44:57;;;;;;;;;;;6.60;99.90;;;;;;5050822;28;19948;-40
2021/12/24 15:47:24;;;;;;;;;;;6.60;99.90;;;;;;5051894;28;20025;-40
2021/12/24 15:49:51;;;;;;;;;;;6.60;99.90;;;;;;5055136;28;19924;-39
2021/12/24 15:52:19;;;;;;;;;;;6.60;99.90;;;;;;5072460;28;19972;-39
2021/12/24 15:54:46;;;;;;;;;;;6.60;99.90;;;;;;5073699;28;19931;-38
2021/12/24 15:57:13;;;;;;;;;;;6.60;99.90;;;;;;5064692;28;19982;-40
2021/12/24 15:59:40;;;;;;;;;;;6.50;99.90;;;;;;5073547;28;19940;-41
2021/12/24 16:02:07;;;;;;;;;;;6.60;99.90;;;;;;5099506;28;19967;-40
2021/12/24 16:04:34;;;;;;;;;;;6.50;99.90;;;;;;5065199;28;20027;-39